sensor_id;sensor_type;location;lat;lon;timestamp;pressure;altitude;pressure_sealevel;temperature;humidity
49515;BME280;35415;47.870;16.058;2023-07-29T00:01:18;96977.28;;;19.44;100.00
49515;BME280;35415;47.870;16.058;2023-07-29T00:03:46;96968.97;;;19.40;100.00
49515;BME280;35415;47.870;16.058;2023-07-29T00:06:13;96971.25;;;19.38;100.00
49515;BME280;35415;47.870;16.058;2023-07-29T00:08:42;96970.78;;;19.36;100.00
49515;BME280;35415;47.870;16.058;2023-07-29T00:11:09;96961.34;;;19.34;100.00
49515;BME280;35415;47.870;16.058;2023-07-29T00:13:36;96958.13;;;19.32;100.00
49515;BME280;35415;47.870;16.058;2023-07-29T00:16:04;96946.75;;;19.30;100.00
49515;BME280;35415;47.870;16.058;2023-07-29T00:18:31;96941.50;;;19.24;100.00
49515;BME280;35415;47.870;16.058;2023-07-29T00:20:59;96920.59;;;19.08;100.00
49515;BME280;35415;47.870;16.058;2023-07-29T00:23:26;96946.00;;;19.20;100.00
49515;BME280;35415;47.870;16.058;2023-07-29T00:25:55;96942.03;;;19.18;100.00
49515;BME280;35415;47.870;16.058;2023-07-29T00:28:22;96941.56;;;19.16;100.00
49515;BME280;35415;47.870;16.058;2023-07-29T00:30:49;96939.97;;;19.15;100.00
49515;BME280;35415;47.870;16.058;2023-07-29T00:33:17;96929.56;;;19.08;100.00
49515;BME280;35415;47.870;16.058;2023-07-29T00:35:47;96934.69;;;19.10;100.00
49515;BME280;35415;47.870;16.058;2023-07-29T00:38:14;96942.06;;;19.09;100.00
49515;BME280;35415;47.870;16.058;2023-07-29T00:40:46;96936.16;;;19.07;100.00
49515;BME280;35415;47.870;16.058;2023-07-29T00:43:15;96922.53;;;19.07;100.00
49515;BME280;35415;47.870;16.058;2023-07-29T00:45:45;96920.13;;;19.06;100.00
49515;BME280;35415;47.870;16.058;2023-07-29T00:48:13;96900.28;;;18.97;100.00
49515;BME280;35415;47.870;16.058;2023-07-29T00:50:41;96908.75;;;19.04;100.00
49515;BME280;35415;47.870;16.058;2023-07-29T00:53:11;96910.69;;;19.03;100.00
49515;BME280;35415;47.870;16.058;2023-07-29T00:55:39;96916.13;;;19.03;100.00
49515;BME280;35415;47.870;16.058;2023-07-29T00:58:12;96909.09;;;19.02;100.00
49515;BME280;35415;47.870;16.058;2023-07-29T01:00:41;96920.78;;;19.03;100.00
49515;BME280;35415;47.870;16.058;2023-07-29T01:03:11;96912.63;;;19.03;100.00
49515;BME280;35415;47.870;16.058;2023-07-29T01:05:48;96879.56;;;18.83;100.00
49515;BME280;35415;47.870;16.058;2023-07-29T01:08:24;96912.63;;;19.03;100.00
49515;BME280;35415;47.870;16.058;2023-07-29T01:11:01;96908.28;;;19.02;100.00
49515;BME280;35415;47.870;16.058;2023-07-29T01:13:35;96902.38;;;19.00;100.00
49515;BME280;35415;47.870;16.058;2023-07-29T01:16:10;96905.25;;;19.03;100.00
49515;BME280;35415;47.870;16.058;2023-07-29T01:18:41;96900.91;;;19.02;100.00
49515;BME280;35415;47.870;16.058;2023-07-29T01:21:11;96902.03;;;19.01;100.00
49515;BME280;35415;47.870;16.058;2023-07-29T01:23:42;96905.56;;;19.02;100.00
49515;BME280;35415;47.870;16.058;2023-07-29T01:26:09;96902.38;;;19.00;100.00
49515;BME280;35415;47.870;16.058;2023-07-29T01:28:36;96907.03;;;18.99;100.00
49515;BME280;35415;47.870;16.058;2023-07-29T01:31:12;96905.09;;;19.00;100.00
49515;BME280;35415;47.870;16.058;2023-07-29T01:33:44;96906.25;;;18.99;100.00
49515;BME280;35415;47.870;16.058;2023-07-29T01:36:18;96909.75;;;18.99;100.00
49515;BME280;35415;47.870;16.058;2023-07-29T01:38:46;96899.59;;;19.08;100.00
49515;BME280;35415;47.870;16.058;2023-07-29T01:41:15;96907.81;;;19.00;100.00
49515;BME280;35415;47.870;16.058;2023-07-29T01:43:45;96900.63;;;18.95;100.00
49515;BME280;35415;47.870;16.058;2023-07-29T01:46:14;96900.16;;;18.93;100.00
49515;BME280;35415;47.870;16.058;2023-07-29T01:48:41;96908.34;;;18.93;100.00
49515;BME280;35415;47.870;16.058;2023-07-29T01:51:12;96908.19;;;18.89;100.00
49515;BME280;35415;47.870;16.058;2023-07-29T01:53:39;96917.50;;;18.88;100.00
49515;BME280;35415;47.870;16.058;2023-07-29T01:56:08;96909.66;;;18.87;100.00
49515;BME280;35415;47.870;16.058;2023-07-29T01:58:38;96916.25;;;18.86;100.00
49515;BME280;35415;47.870;16.058;2023-07-29T02:01:05;96906.97;;;18.78;100.00
49515;BME280;35415;47.870;16.058;2023-07-29T02:03:33;96914.97;;;18.83;100.00
49515;BME280;35415;47.870;16.058;2023-07-29T02:06:00;96917.69;;;18.83;100.00
49515;BME280;35415;47.870;16.058;2023-07-29T02:08:28;96906.81;;;18.83;100.00
49515;BME280;35415;47.870;16.058;2023-07-29T02:10:55;96911.47;;;18.83;100.00
49515;BME280;35415;47.870;16.058;2023-07-29T02:13:24;96909.06;;;18.81;100.00
49515;BME280;35415;47.870;16.058;2023-07-29T02:15:51;96905.56;;;18.72;100.00
49515;BME280;35415;47.870;16.058;2023-07-29T02:18:18;96915.59;;;18.80;100.00
49515;BME280;35415;47.870;16.058;2023-07-29T02:20:46;96903.44;;;18.78;100.00
49515;BME280;35415;47.870;16.058;2023-07-29T02:23:14;96917.88;;;18.78;100.00
49515;BME280;35415;47.870;16.058;2023-07-29T02:25:45;96916.28;;;18.77;100.00
49515;BME280;35415;47.870;16.058;2023-07-29T02:28:13;96913.09;;;18.75;100.00
49515;BME280;35415;47.870;16.058;2023-07-29T02:30:42;96915.81;;;18.75;100.00
49515;BME280;35415;47.870;16.058;2023-07-29T02:33:15;96921.59;;;18.74;100.00
49515;BME280;35415;47.870;16.058;2023-07-29T02:35:42;96920.78;;;18.73;100.00
49515;BME280;35415;47.870;16.058;2023-07-29T02:38:12;96927.38;;;18.72;100.00
49515;BME280;35415;47.870;16.058;2023-07-29T02:40:38;96935.06;;;18.70;100.00
49515;BME280;35415;47.870;16.058;2023-07-29T02:43:05;96929.63;;;18.70;100.00
49515;BME280;35415;47.870;16.058;2023-07-29T02:45:32;96929.94;;;18.69;100.00
49515;BME280;35415;47.870;16.058;2023-07-29T02:48:01;96931.09;;;18.68;100.00
49515;BME280;35415;47.870;16.058;2023-07-29T02:50:29;96932.53;;;18.65;100.00
49515;BME280;35415;47.870;16.058;2023-07-29T02:52:56;96928.19;;;18.64;100.00
49515;BME280;35415;47.870;16.058;2023-07-29T02:55:23;96922.28;;;18.53;100.00
49515;BME280;35415;47.870;16.058;2023-07-29T02:57:50;96924.50;;;18.60;100.00
49515;BME280;35415;47.870;16.058;2023-07-29T03:00:18;96931.41;;;18.57;100.00
49515;BME280;35415;47.870;16.058;2023-07-29T03:02:45;96928.22;;;18.55;100.00
49515;BME280;35415;47.870;16.058;2023-07-29T03:05:14;96925.81;;;18.54;100.00
49515;BME280;35415;47.870;16.058;2023-07-29T03:07:41;96924.09;;;18.49;100.00
49515;BME280;35415;47.870;16.058;2023-07-29T03:10:09;96935.44;;;18.51;100.00
49515;BME280;35415;47.870;16.058;2023-07-29T03:12:36;96934.66;;;18.51;100.00
49515;BME280;35415;47.870;16.058;2023-07-29T03:15:05;96933.38;;;18.48;100.00
49515;BME280;35415;47.870;16.058;2023-07-29T03:17:32;96927.13;;;18.48;100.00
49515;BME280;35415;47.870;16.058;2023-07-29T03:20:00;96923.59;;;18.47;100.00
49515;BME280;35415;47.870;16.058;2023-07-29T03:22:29;96922.00;;;18.46;100.00
49515;BME280;35415;47.870;16.058;2023-07-29T03:24:55;96921.53;;;18.44;100.00
49515;BME280;35415;47.870;16.058;2023-07-29T03:27:23;96928.09;;;18.43;100.00
49515;BME280;35415;47.870;16.058;2023-07-29T03:29:50;96931.47;;;18.40;100.00
49515;BME280;35415;47.870;16.058;2023-07-29T03:32:17;96920.31;;;18.33;100.00
49515;BME280;35415;47.870;16.058;2023-07-29T03:34:47;96927.81;;;18.36;100.00
49515;BME280;35415;47.870;16.058;2023-07-29T03:37:14;96932.78;;;18.34;100.00
49515;BME280;35415;47.870;16.058;2023-07-29T03:39:43;96935.84;;;18.32;100.00
49515;BME280;35415;47.870;16.058;2023-07-29T03:42:11;96941.91;;;18.29;100.00
49515;BME280;35415;47.870;16.058;2023-07-29T03:44:38;96939.50;;;18.28;100.00
49515;BME280;35415;47.870;16.058;2023-07-29T03:47:06;96940.16;;;18.25;100.00
49515;BME280;35415;47.870;16.058;2023-07-29T03:49:33;96940.97;;;18.25;100.00
49515;BME280;35415;47.870;16.058;2023-07-29T03:52:00;96951.38;;;18.23;100.00
49515;BME280;35415;47.870;16.058;2023-07-29T03:54:28;96957.16;;;18.22;100.00
49515;BME280;35415;47.870;16.058;2023-07-29T03:56:56;96950.91;;;18.21;100.00
49515;BME280;35415;47.870;16.058;2023-07-29T03:59:23;96965.66;;;18.20;100.00
49515;BME280;35415;47.870;16.058;2023-07-29T04:01:50;96957.47;;;18.20;100.00
49515;BME280;35415;47.870;16.058;2023-07-29T04:04:18;96966.44;;;18.21;100.00
49515;BME280;35415;47.870;16.058;2023-07-29T04:06:45;96918.31;;;17.87;100.00
49515;BME280;35415;47.870;16.058;2023-07-29T04:09:12;96965.66;;;18.20;100.00
49515;BME280;35415;47.870;16.058;2023-07-29T04:11:40;96957.94;;;18.22;100.00
49515;BME280;35415;47.870;16.058;2023-07-29T04:14:08;96960.69;;;18.22;100.00
49515;BME280;35415;47.870;16.058;2023-07-29T04:16:35;96972.03;;;18.24;100.00
49515;BME280;35415;47.870;16.058;2023-07-29T04:19:03;96976.34;;;18.25;100.00
49515;BME280;35415;47.870;16.058;2023-07-29T04:21:30;96974.44;;;18.26;100.00
49515;BME280;35415;47.870;16.058;2023-07-29T04:23:57;96976.84;;;18.27;100.00
49515;BME280;35415;47.870;16.058;2023-07-29T04:26:24;96985.78;;;18.28;100.00
49515;BME280;35415;47.870;16.058;2023-07-29T04:28:52;96991.25;;;18.28;100.00
49515;BME280;35415;47.870;16.058;2023-07-29T04:31:21;96989.31;;;18.28;100.00
49515;BME280;35415;47.870;16.058;2023-07-29T04:33:48;96985.00;;;18.27;100.00
49515;BME280;35415;47.870;16.058;2023-07-29T04:36:15;96983.06;;;18.28;100.00
49515;BME280;35415;47.870;16.058;2023-07-29T04:38:42;96989.31;;;18.28;100.00
49515;BME280;35415;47.870;16.058;2023-07-29T04:41:10;96993.97;;;18.28;100.00
49515;BME280;35415;47.870;16.058;2023-07-29T04:43:37;96992.84;;;18.29;100.00
49515;BME280;35415;47.870;16.058;2023-07-29T04:46:06;96993.63;;;18.29;100.00
49515;BME280;35415;47.870;16.058;2023-07-29T04:48:36;96997.16;;;18.30;100.00
49515;BME280;35415;47.870;16.058;2023-07-29T04:51:03;96992.22;;;18.32;100.00
49515;BME280;35415;47.870;16.058;2023-07-29T04:53:30;96986.78;;;18.32;100.00
49515;BME280;35415;47.870;16.058;2023-07-29T04:55:58;96984.53;;;18.34;100.00
49515;BME280;35415;47.870;16.058;2023-07-29T04:58:25;96978.91;;;18.30;100.00
49515;BME280;35415;47.870;16.058;2023-07-29T05:00:54;96986.25;;;18.39;100.00
49515;BME280;35415;47.870;16.058;2023-07-29T05:03:21;96989.47;;;18.41;100.00
49515;BME280;35415;47.870;16.058;2023-07-29T05:05:50;96994.56;;;18.42;100.00
49515;BME280;35415;47.870;16.058;2023-07-29T05:08:20;96987.22;;;18.43;100.00
49515;BME280;35415;47.870;16.058;2023-07-29T05:10:48;96995.53;;;18.46;100.00
49515;BME280;35415;47.870;16.058;2023-07-29T05:13:17;96997.94;;;18.48;100.00
49515;BME280;35415;47.870;16.058;2023-07-29T05:15:50;96978.38;;;18.46;100.00
49515;BME280;35415;47.870;16.058;2023-07-29T05:18:18;96932.03;;;18.16;100.00
49515;BME280;35415;47.870;16.058;2023-07-29T05:20:50;96992.78;;;18.55;100.00
49515;BME280;35415;47.870;16.058;2023-07-29T05:23:17;96995.66;;;18.58;100.00
49515;BME280;35415;47.870;16.058;2023-07-29T05:25:44;96998.84;;;18.60;100.00
49515;BME280;35415;47.870;16.058;2023-07-29T05:28:15;97005.59;;;18.63;100.00
49515;BME280;35415;47.870;16.058;2023-07-29T05:30:43;97007.69;;;18.66;100.00
49515;BME280;35415;47.870;16.058;2023-07-29T05:33:15;96975.97;;;18.53;100.00
49515;BME280;35415;47.870;16.058;2023-07-29T05:35:42;96923.19;;;18.28;100.00
49515;BME280;35415;47.870;16.058;2023-07-29T05:38:15;96938.88;;;18.31;100.00
49515;BME280;35415;47.870;16.058;2023-07-29T05:40:42;96978.34;;;18.72;100.00
49515;BME280;35415;47.870;16.058;2023-07-29T05:43:13;96977.06;;;18.69;100.00
49515;BME280;35415;47.870;16.058;2023-07-29T05:45:41;97010.63;;;18.90;100.00
49515;BME280;35415;47.870;16.058;2023-07-29T05:48:08;96995.22;;;18.94;100.00
49515;BME280;35415;47.870;16.058;2023-07-29T05:50:35;96989.59;;;19.00;100.00
49515;BME280;35415;47.870;16.058;2023-07-29T05:53:03;96966.59;;;18.80;100.00
49515;BME280;35415;47.870;16.058;2023-07-29T05:55:32;96944.31;;;18.78;100.00
49515;BME280;35415;47.870;16.058;2023-07-29T05:58:02;96961.22;;;19.01;100.00
49515;BME280;35415;47.870;16.058;2023-07-29T06:00:30;96970.78;;;19.07;100.00
49515;BME280;35415;47.870;16.058;2023-07-29T06:02:57;96952.03;;;19.05;100.00
49515;BME280;35415;47.870;16.058;2023-07-29T06:05:48;96952.31;;;19.12;100.00
49515;BME280;35415;47.870;16.058;2023-07-29T06:08:16;96986.59;;;19.43;100.00
49515;BME280;35415;47.870;16.058;2023-07-29T06:10:44;96997.31;;;19.48;100.00
49515;BME280;35415;47.870;16.058;2023-07-29T06:13:15;96964.19;;;19.37;100.00
49515;BME280;35415;47.870;16.058;2023-07-29T06:15:42;96931.63;;;19.11;100.00
49515;BME280;35415;47.870;16.058;2023-07-29T06:18:09;96991.16;;;19.60;100.00
49515;BME280;35415;47.870;16.058;2023-07-29T06:20:36;96957.41;;;19.43;100.00
49515;BME280;35415;47.870;16.058;2023-07-29T06:23:04;96999.75;;;19.70;100.00
49515;BME280;35415;47.870;16.058;2023-07-29T06:25:31;96994.22;;;19.79;100.00
49515;BME280;35415;47.870;16.058;2023-07-29T06:27:59;96994.16;;;19.88;100.00
49515;BME280;35415;47.870;16.058;2023-07-29T06:30:27;97000.00;;;19.98;100.00
49515;BME280;35415;47.870;16.058;2023-07-29T06:32:54;96972.38;;;20.00;100.00
49515;BME280;35415;47.870;16.058;2023-07-29T06:35:24;96973.66;;;20.14;100.00
49515;BME280;35415;47.870;16.058;2023-07-29T06:37:51;96928.78;;;19.91;100.00
49515;BME280;35415;47.870;16.058;2023-07-29T06:40:18;96921.84;;;19.94;100.00
49515;BME280;35415;47.870;16.058;2023-07-29T06:42:46;96987.03;;;20.49;100.00
49515;BME280;35415;47.870;16.058;2023-07-29T06:45:14;96940.88;;;20.35;99.31
49515;BME280;35415;47.870;16.058;2023-07-29T06:47:42;96954.81;;;20.55;97.70
49515;BME280;35415;47.870;16.058;2023-07-29T06:50:10;96972.59;;;20.73;98.51
49515;BME280;35415;47.870;16.058;2023-07-29T06:52:37;96973.63;;;20.93;99.06
49515;BME280;35415;47.870;16.058;2023-07-29T06:55:06;96972.38;;;21.02;93.70
49515;BME280;35415;47.870;16.058;2023-07-29T06:57:34;96936.63;;;20.83;94.64
49515;BME280;35415;47.870;16.058;2023-07-29T07:00:07;96968.72;;;21.23;95.91
49515;BME280;35415;47.870;16.058;2023-07-29T07:02:37;96907.56;;;20.91;93.83
49515;BME280;35415;47.870;16.058;2023-07-29T07:05:05;96966.22;;;21.42;92.89
49515;BME280;35415;47.870;16.058;2023-07-29T07:07:32;96935.78;;;21.31;91.27
49515;BME280;35415;47.870;16.058;2023-07-29T07:10:00;96904.22;;;21.22;90.86
49515;BME280;35415;47.870;16.058;2023-07-29T07:12:27;96917.41;;;21.44;90.06
49515;BME280;35415;47.870;16.058;2023-07-29T07:14:54;96931.25;;;21.63;88.52
49515;BME280;35415;47.870;16.058;2023-07-29T07:17:22;96955.13;;;21.91;87.99
49515;BME280;35415;47.870;16.058;2023-07-29T07:19:51;96878.38;;;21.59;87.28
49515;BME280;35415;47.870;16.058;2023-07-29T07:22:18;96954.59;;;22.13;86.45
49515;BME280;35415;47.870;16.058;2023-07-29T07:24:46;96914.13;;;21.95;84.51
49515;BME280;35415;47.870;16.058;2023-07-29T07:27:13;96949.59;;;22.31;84.72
49515;BME280;35415;47.870;16.058;2023-07-29T07:29:40;96880.94;;;21.96;81.34
49515;BME280;35415;47.870;16.058;2023-07-29T07:32:10;96910.34;;;22.27;81.76
49515;BME280;35415;47.870;16.058;2023-07-29T07:34:37;96941.47;;;22.50;83.30
49515;BME280;35415;47.870;16.058;2023-07-29T07:37:07;96916.19;;;22.41;84.12
49515;BME280;35415;47.870;16.058;2023-07-29T07:39:36;96869.75;;;22.17;82.09
49515;BME280;35415;47.870;16.058;2023-07-29T07:42:06;96907.53;;;22.55;82.76
49515;BME280;35415;47.870;16.058;2023-07-29T07:44:34;96904.97;;;22.62;80.09
49515;BME280;35415;47.870;16.058;2023-07-29T07:47:03;96881.88;;;22.47;82.59
49515;BME280;35415;47.870;16.058;2023-07-29T07:49:33;96942.72;;;23.00;83.55
49515;BME280;35415;47.870;16.058;2023-07-29T07:52:01;96914.72;;;22.91;82.32
49515;BME280;35415;47.870;16.058;2023-07-29T07:54:30;96939.09;;;23.12;81.03
49515;BME280;35415;47.870;16.058;2023-07-29T07:56:57;96874.88;;;22.81;78.61
49515;BME280;35415;47.870;16.058;2023-07-29T07:59:28;96885.63;;;22.87;77.93
49515;BME280;35415;47.870;16.058;2023-07-29T08:01:55;96918.91;;;23.20;77.75
49515;BME280;35415;47.870;16.058;2023-07-29T08:04:22;96940.81;;;23.36;76.50
49515;BME280;35415;47.870;16.058;2023-07-29T08:06:49;96917.19;;;23.31;76.80
49515;BME280;35415;47.870;16.058;2023-07-29T08:09:17;96894.66;;;23.22;77.12
49515;BME280;35415;47.870;16.058;2023-07-29T08:11:46;96936.88;;;23.53;76.16
49515;BME280;35415;47.870;16.058;2023-07-29T08:14:13;96945.53;;;23.70;77.73
49515;BME280;35415;47.870;16.058;2023-07-29T08:16:40;96874.16;;;23.35;79.30
49515;BME280;35415;47.870;16.058;2023-07-29T08:19:08;96936.41;;;23.86;78.69
49515;BME280;35415;47.870;16.058;2023-07-29T08:21:35;96932.66;;;23.94;79.96
49515;BME280;35415;47.870;16.058;2023-07-29T08:24:03;96912.13;;;23.88;75.52
49515;BME280;35415;47.870;16.058;2023-07-29T08:26:32;96901.94;;;23.88;74.14
49515;BME280;35415;47.870;16.058;2023-07-29T08:29:01;96909.72;;;24.06;74.59
49515;BME280;35415;47.870;16.058;2023-07-29T08:31:32;96891.56;;;24.01;73.00
49515;BME280;35415;47.870;16.058;2023-07-29T08:34:00;96898.22;;;24.19;74.00
49515;BME280;35415;47.870;16.058;2023-07-29T08:36:27;96895.66;;;24.30;70.52
49515;BME280;35415;47.870;16.058;2023-07-29T08:38:55;96887.63;;;24.41;71.23
49515;BME280;35415;47.870;16.058;2023-07-29T08:41:26;96848.78;;;24.23;70.12
49515;BME280;35415;47.870;16.058;2023-07-29T08:44:01;96889.50;;;24.59;68.23
49515;BME280;35415;47.870;16.058;2023-07-29T08:46:35;96902.84;;;24.84;71.43
49515;BME280;35415;47.870;16.058;2023-07-29T08:49:03;96904.97;;;24.94;66.38
49515;BME280;35415;47.870;16.058;2023-07-29T08:51:31;96891.19;;;24.90;64.36
49515;BME280;35415;47.870;16.058;2023-07-29T08:53:59;96916.31;;;25.15;63.56
49515;BME280;35415;47.870;16.058;2023-07-29T08:56:28;96873.75;;;25.06;64.62
49515;BME280;35415;47.870;16.058;2023-07-29T08:58:56;96897.63;;;25.28;65.77
49515;BME280;35415;47.870;16.058;2023-07-29T09:01:29;96898.19;;;25.37;63.68
49515;BME280;35415;47.870;16.058;2023-07-29T09:03:56;96858.88;;;25.10;61.76
49515;BME280;35415;47.870;16.058;2023-07-29T09:06:24;96876.59;;;25.43;61.38
49515;BME280;35415;47.870;16.058;2023-07-29T09:08:53;96885.06;;;25.57;61.36
49515;BME280;35415;47.870;16.058;2023-07-29T09:11:22;96871.59;;;25.52;58.98
49515;BME280;35415;47.870;16.058;2023-07-29T09:13:49;96894.38;;;25.79;57.04
49515;BME280;35415;47.870;16.058;2023-07-29T09:16:18;96859.16;;;25.65;57.23
49515;BME280;35415;47.870;16.058;2023-07-29T09:18:51;96832.31;;;25.55;58.67
49515;BME280;35415;47.870;16.058;2023-07-29T09:21:23;96890.00;;;26.08;58.13
49515;BME280;35415;47.870;16.058;2023-07-29T09:23:52;96855.25;;;26.00;58.33
49515;BME280;35415;47.870;16.058;2023-07-29T09:26:22;96825.66;;;25.93;58.05
49515;BME280;35415;47.870;16.058;2023-07-29T09:28:54;96876.88;;;26.35;63.07
49515;BME280;35415;47.870;16.058;2023-07-29T09:31:22;96812.41;;;26.06;55.29
49515;BME280;35415;47.870;16.058;2023-07-29T09:33:56;96847.78;;;26.37;56.18
49515;BME280;35415;47.870;16.058;2023-07-29T09:36:23;96815.25;;;26.17;57.89
49515;BME280;35415;47.870;16.058;2023-07-29T09:38:54;96858.59;;;26.57;54.63
49515;BME280;35415;47.870;16.058;2023-07-29T09:41:25;96864.16;;;26.67;58.96
49515;BME280;35415;47.870;16.058;2023-07-29T09:43:57;96862.25;;;26.72;59.13
49515;BME280;35415;47.870;16.058;2023-07-29T09:46:25;96863.44;;;26.74;57.06
49515;BME280;35415;47.870;16.058;2023-07-29T09:48:56;96868.69;;;26.90;56.22
49515;BME280;35415;47.870;16.058;2023-07-29T09:51:27;96796.31;;;26.56;53.41
49515;BME280;35415;47.870;16.058;2023-07-29T09:53:55;96812.94;;;26.70;58.22
49515;BME280;35415;47.870;16.058;2023-07-29T09:56:25;96866.50;;;27.13;56.72
49515;BME280;35415;47.870;16.058;2023-07-29T09:58:55;96801.19;;;26.80;57.07
49515;BME280;35415;47.870;16.058;2023-07-29T10:01:31;96830.56;;;27.06;57.92
49515;BME280;35415;47.870;16.058;2023-07-29T10:07:24;96867.84;;;27.44;55.86
49515;BME280;35415;47.870;16.058;2023-07-29T10:09:52;96858.81;;;27.54;56.55
49515;BME280;35415;47.870;16.058;2023-07-29T10:12:21;96864.41;;;27.65;56.23
49515;BME280;35415;47.870;16.058;2023-07-29T10:14:50;96835.56;;;27.55;53.70
49515;BME280;35415;47.870;16.058;2023-07-29T10:17:20;96847.13;;;27.90;56.41
49515;BME280;35415;47.870;16.058;2023-07-29T10:19:51;96847.53;;;27.99;53.72
49515;BME280;35415;47.870;16.058;2023-07-29T10:22:20;96820.25;;;27.86;56.70
49515;BME280;35415;47.870;16.058;2023-07-29T10:24:51;96808.84;;;27.92;56.36
49515;BME280;35415;47.870;16.058;2023-07-29T10:27:36;96822.28;;;28.11;55.29
49515;BME280;35415;47.870;16.058;2023-07-29T10:30:11;96836.94;;;28.22;55.83
49515;BME280;35415;47.870;16.058;2023-07-29T10:35:39;96859.88;;;28.55;56.04
49515;BME280;35415;47.870;16.058;2023-07-29T10:38:07;96845.25;;;28.65;55.92
49515;BME280;35415;47.870;16.058;2023-07-29T10:40:50;96786.38;;;28.36;56.40
49515;BME280;35415;47.870;16.058;2023-07-29T10:43:20;96849.59;;;28.84;56.63
49515;BME280;35415;47.870;16.058;2023-07-29T10:45:51;96793.09;;;28.56;54.40
49515;BME280;35415;47.870;16.058;2023-07-29T10:51:44;96851.56;;;29.04;52.77
49515;BME280;35415;47.870;16.058;2023-07-29T10:54:12;96834.94;;;29.04;52.10
49515;BME280;35415;47.870;16.058;2023-07-29T10:56:43;96803.31;;;28.84;53.36
49515;BME280;35415;47.870;16.058;2023-07-29T10:59:32;96783.19;;;28.87;54.40
49515;BME280;35415;47.870;16.058;2023-07-29T11:02:17;96776.03;;;28.83;53.33
49515;BME280;35415;47.870;16.058;2023-07-29T11:04:46;96815.91;;;29.21;49.91
49515;BME280;35415;47.870;16.058;2023-07-29T11:10:43;96806.84;;;29.17;52.31
49515;BME280;35415;47.870;16.058;2023-07-29T11:13:17;96819.50;;;29.18;50.83
49515;BME280;35415;47.870;16.058;2023-07-29T11:15:46;96819.88;;;29.20;49.95
49515;BME280;35415;47.870;16.058;2023-07-29T11:18:13;96768.13;;;28.85;51.03
49515;BME280;35415;47.870;16.058;2023-07-29T11:20:41;96823.50;;;29.10;51.17
49515;BME280;35415;47.870;16.058;2023-07-29T11:23:10;96844.44;;;29.14;49.55
49515;BME280;35415;47.870;16.058;2023-07-29T11:25:40;96838.94;;;29.07;49.99
49515;BME280;35415;47.870;16.058;2023-07-29T11:28:08;96835.34;;;29.03;50.97
49515;BME280;35415;47.870;16.058;2023-07-29T11:30:38;96789.53;;;28.59;52.62
49515;BME280;35415;47.870;16.058;2023-07-29T11:33:06;96881.66;;;28.88;58.15
49515;BME280;35415;47.870;16.058;2023-07-29T11:35:33;96874.50;;;28.30;69.09
49515;BME280;35415;47.870;16.058;2023-07-29T11:38:00;96850.69;;;28.01;74.08
49515;BME280;35415;47.870;16.058;2023-07-29T11:40:28;96901.75;;;28.32;75.92
49515;BME280;35415;47.870;16.058;2023-07-29T11:42:55;96890.22;;;28.19;78.42
49515;BME280;35415;47.870;16.058;2023-07-29T11:45:22;96887.44;;;28.05;81.91
49515;BME280;35415;47.870;16.058;2023-07-29T11:47:51;96887.03;;;27.92;88.50
49515;BME280;35415;47.870;16.058;2023-07-29T11:50:18;96882.63;;;27.84;93.17
49515;BME280;35415;47.870;16.058;2023-07-29T11:52:46;96878.28;;;27.72;85.51
49515;BME280;35415;47.870;16.058;2023-07-29T11:55:14;96866.78;;;27.63;80.96
49515;BME280;35415;47.870;16.058;2023-07-29T11:57:42;96858.00;;;27.54;80.70
49515;BME280;35415;47.870;16.058;2023-07-29T12:00:13;96859.22;;;27.56;90.15
49515;BME280;35415;47.870;16.058;2023-07-29T12:02:41;96850.94;;;27.56;91.08
49515;BME280;35415;47.870;16.058;2023-07-29T12:05:13;96841.09;;;27.59;93.41
49515;BME280;35415;47.870;16.058;2023-07-29T12:07:42;96850.16;;;27.60;94.50
49515;BME280;35415;47.870;16.058;2023-07-29T12:10:10;96844.19;;;27.54;95.81
49515;BME280;35415;47.870;16.058;2023-07-29T12:12:44;96810.63;;;27.45;98.50
49515;BME280;35415;47.870;16.058;2023-07-29T12:15:25;96836.75;;;27.62;94.89
49515;BME280;35415;47.870;16.058;2023-07-29T12:39:50;96920.28;;;27.37;95.34
49515;BME280;35415;47.870;16.058;2023-07-29T12:42:17;96951.09;;;27.39;90.56
49515;BME280;35415;47.870;16.058;2023-07-29T12:44:44;96972.22;;;27.21;80.25
49515;BME280;35415;47.870;16.058;2023-07-29T12:47:12;96983.00;;;26.89;80.18
49515;BME280;35415;47.870;16.058;2023-07-29T12:49:40;96971.63;;;26.53;82.79
49515;BME280;35415;47.870;16.058;2023-07-29T12:52:07;96971.34;;;26.28;79.72
49515;BME280;35415;47.870;16.058;2023-07-29T12:54:37;96957.56;;;25.95;83.55
49515;BME280;35415;47.870;16.058;2023-07-29T12:57:07;96949.28;;;25.65;85.80
49515;BME280;35415;47.870;16.058;2023-07-29T12:59:34;96946.19;;;25.40;88.57
49515;BME280;35415;47.870;16.058;2023-07-29T13:02:01;96938.41;;;25.19;88.11
49515;BME280;35415;47.870;16.058;2023-07-29T13:04:28;96938.78;;;24.95;85.21
49515;BME280;35415;47.870;16.058;2023-07-29T13:06:56;96926.22;;;24.71;84.82
49515;BME280;35415;47.870;16.058;2023-07-29T13:09:25;96921.66;;;24.55;87.80
49515;BME280;35415;47.870;16.058;2023-07-29T13:11:52;96918.16;;;24.36;91.47
49515;BME280;35415;47.870;16.058;2023-07-29T13:14:21;96908.47;;;24.22;93.79
49515;BME280;35415;47.870;16.058;2023-07-29T13:16:48;96896.47;;;24.11;95.81
49515;BME280;35415;47.870;16.058;2023-07-29T13:19:15;96893.19;;;24.02;95.23
49515;BME280;35415;47.870;16.058;2023-07-29T13:21:42;96886.31;;;23.92;95.91
49515;BME280;35415;47.870;16.058;2023-07-29T13:24:10;96886.19;;;23.85;96.62
49515;BME280;35415;47.870;16.058;2023-07-29T13:26:38;96884.00;;;23.75;97.53
49515;BME280;35415;47.870;16.058;2023-07-29T13:29:05;96883.16;;;23.71;100.00